Time;durP1;ratioP1;P1;durP2;ratioP2;P2;SDS_P1;SDS_P2;PMS_P1;PMS_P2;Temp;Humidity;BMP_temperature;BMP_pressure;BME280_temperature;BME280_humidity;BME280_pressure;Samples;Min_cycle;Max_cycle;Signal;HPM_P1;HPM_P2
2022/04/01 00:00:14;;;;;;;0.10;0.10;;;;;;;;;;1731442;28;20640;-74
2022/04/01 00:01:06;;;;;;;0.30;0.30;;;;;;;;;;1726168;28;20257;-74
2022/04/01 00:01:58;;;;;;;0.13;0.13;;;;;;;;;;1727180;28;20208;-73
2022/04/01 00:02:50;;;;;;;0.43;0.43;;;;;;;;;;1732140;28;20196;-73
2022/04/01 00:03:41;;;;;;;0.20;0.20;;;;;;;;;;1730760;28;20210;-73
2022/04/01 00:04:33;;;;;;;0.20;0.20;;;;;;;;;;1732999;28;20201;-73
2022/04/01 00:05:24;;;;;;;0.25;0.25;;;;;;;;;;1728798;28;20209;-72
2022/04/01 00:06:17;;;;;;;0.55;0.55;;;;;;;;;;1726184;28;20286;-73
2022/04/01 00:07:08;;;;;;;0.25;0.25;;;;;;;;;;1726113;28;20662;-73
2022/04/01 00:08:01;;;;;;;0.35;0.35;;;;;;;;;;1726572;28;20212;-73
2022/04/01 00:08:52;;;;;;;0.20;0.20;;;;;;;;;;1722885;28;20221;-73
2022/04/01 00:09:45;;;;;;;0.20;0.20;;;;;;;;;;1719090;28;20217;-73
2022/04/01 00:10:36;;;;;;;0.28;0.28;;;;;;;;;;1720583;28;20647;-73
2022/04/01 00:11:28;;;;;;;0.40;0.40;;;;;;;;;;1726834;28;20651;-73
2022/04/01 00:12:21;;;;;;;0.30;0.30;;;;;;;;;;1725498;28;20209;-73
2022/04/01 00:13:14;;;;;;;0.10;0.10;;;;;;;;;;1726895;28;20204;-73
2022/04/01 00:14:08;;;;;;;0.10;0.10;;;;;;;;;;1724627;28;20625;-73
2022/04/01 00:15:00;;;;;;;0.15;0.15;;;;;;;;;;1723802;28;20198;-73
2022/04/01 00:15:52;;;;;;;0.30;0.30;;;;;;;;;;1722265;28;20252;-74
2022/04/01 00:16:44;;;;;;;0.30;0.30;;;;;;;;;;1718947;28;20199;-74
2022/04/01 00:17:35;;;;;;;0.55;0.55;;;;;;;;;;1726282;28;20816;-74
2022/04/01 00:18:27;;;;;;;0.20;0.20;;;;;;;;;;1724701;28;20215;-74
2022/04/01 00:19:20;;;;;;;0.20;0.20;;;;;;;;;;1726575;28;20208;-74
2022/04/01 00:20:12;;;;;;;0.20;0.20;;;;;;;;;;1725209;28;20209;-75
2022/04/01 00:21:03;;;;;;;0.20;0.20;;;;;;;;;;1725179;28;20252;-73
2022/04/01 00:21:56;;;;;;;0.17;0.17;;;;;;;;;;1726090;28;20208;-73
2022/04/01 00:22:47;;;;;;;0.13;0.13;;;;;;;;;;1720837;28;20218;-73
2022/04/01 00:23:40;;;;;;;0.10;0.10;;;;;;;;;;1722555;28;20668;-73
2022/04/01 00:24:31;;;;;;;0.10;0.10;;;;;;;;;;1726739;28;20220;-73
2022/04/01 00:25:23;;;;;;;0.20;0.20;;;;;;;;;;1724339;28;20228;-74
2022/04/01 00:26:15;;;;;;;0.28;0.28;;;;;;;;;;1723474;28;20217;-74
2022/04/01 00:27:07;;;;;;;0.20;0.20;;;;;;;;;;1722548;28;20236;-74
2022/04/01 00:27:58;;;;;;;0.20;0.20;;;;;;;;;;1726667;28;20208;-74
2022/04/01 00:28:50;;;;;;;0.20;0.20;;;;;;;;;;1723389;28;20255;-74
2022/04/01 00:29:43;;;;;;;0.10;0.10;;;;;;;;;;1719588;28;20211;-74
2022/04/01 00:30:36;;;;;;;0.10;0.10;;;;;;;;;;1720774;28;20347;-73
2022/04/01 00:31:27;;;;;;;0.08;0.08;;;;;;;;;;1723401;28;20211;-73
2022/04/01 00:32:21;;;;;;;0.20;0.20;;;;;;;;;;1724179;28;20201;-73
2022/04/01 00:33:14;;;;;;;0.10;0.10;;;;;;;;;;1720084;28;20207;-73
2022/04/01 00:34:16;;;;;;;0.20;0.20;;;;;;;;;;1721917;28;20209;-73
2022/04/01 00:35:07;;;;;;;0.20;0.20;;;;;;;;;;1725407;28;20539;-73
2022/04/01 00:35:59;;;;;;;0.10;0.10;;;;;;;;;;1723281;28;20291;-74
2022/04/01 00:36:51;;;;;;;0.22;0.22;;;;;;;;;;1726458;28;20639;-74
2022/04/01 00:37:43;;;;;;;0.10;0.10;;;;;;;;;;1726209;28;20201;-73
2022/04/01 00:38:34;;;;;;;0.17;0.17;;;;;;;;;;1725928;28;20208;-73
2022/04/01 00:39:29;;;;;;;0.45;0.45;;;;;;;;;;1723866;28;20201;-73
2022/04/01 00:40:23;;;;;;;0.25;0.25;;;;;;;;;;1721638;28;20199;-73
2022/04/01 00:41:16;;;;;;;0.10;0.10;;;;;;;;;;1725383;28;20621;-74
2022/04/01 00:42:07;;;;;;;0.10;0.10;;;;;;;;;;1724728;28;20562;-74
2022/04/01 00:42:59;;;;;;;0.10;0.10;;;;;;;;;;1726465;28;20674;-74
2022/04/01 00:44:10;;;;;;;0.20;0.20;;;;;;;;;;1725555;28;20232;-74
2022/04/01 00:45:04;;;;;;;0.20;0.20;;;;;;;;;;1719316;28;20284;-74
2022/04/01 00:45:55;;;;;;;0.10;0.10;;;;;;;;;;1722204;28;20332;-74
2022/04/01 00:46:47;;;;;;;0.15;0.15;;;;;;;;;;1725914;28;20204;-74
2022/04/01 00:47:39;;;;;;;0.20;0.20;;;;;;;;;;1725477;28;20215;-74
2022/04/01 00:48:31;;;;;;;0.20;0.20;;;;;;;;;;1725605;28;20201;-74
2022/04/01 00:49:23;;;;;;;0.10;0.10;;;;;;;;;;1726118;28;20262;-74
2022/04/01 00:50:15;;;;;;;0.30;0.30;;;;;;;;;;1723383;28;20647;-80
2022/04/01 00:51:07;;;;;;;0.30;0.30;;;;;;;;;;1721273;28;20942;-73
2022/04/01 00:51:59;;;;;;;0.20;0.20;;;;;;;;;;1720220;28;20208;-74
2022/04/01 00:52:52;;;;;;;0.10;0.10;;;;;;;;;;1726089;28;20212;-74
2022/04/01 00:53:43;;;;;;;0.22;0.22;;;;;;;;;;1725413;28;20233;-74
2022/04/01 00:54:36;;;;;;;0.20;0.20;;;;;;;;;;1725163;28;20204;-74
2022/04/01 00:55:28;;;;;;;0.15;0.15;;;;;;;;;;1723161;28;20293;-73
2022/04/01 00:56:22;;;;;;;0.20;0.20;;;;;;;;;;1726030;28;20220;-73
2022/04/01 00:57:14;;;;;;;0.20;0.20;;;;;;;;;;1725559;28;20303;-73
2022/04/01 00:58:06;;;;;;;0.20;0.20;;;;;;;;;;1726098;28;20593;-73
2022/04/01 00:58:58;;;;;;;0.10;0.10;;;;;;;;;;1723897;28;20551;-73
2022/04/01 00:59:51;;;;;;;0.20;0.20;;;;;;;;;;1725972;28;20200;-73
2022/04/01 01:00:43;;;;;;;0.20;0.20;;;;;;;;;;1722147;28;20241;-74
2022/04/01 01:01:36;;;;;;;0.40;0.40;;;;;;;;;;1718900;28;20209;-74
2022/04/01 01:02:28;;;;;;;0.20;0.20;;;;;;;;;;1723721;28;20200;-74
2022/04/01 01:03:20;;;;;;;0.50;0.50;;;;;;;;;;1725863;28;20215;-74
2022/04/01 01:04:13;;;;;;;0.30;0.30;;;;;;;;;;1722921;28;20219;-74
2022/04/01 01:05:06;;;;;;;0.20;0.20;;;;;;;;;;1719247;28;20218;-74
2022/04/01 01:05:57;;;;;;;0.20;0.20;;;;;;;;;;1722803;28;20248;-73
2022/04/01 01:06:50;;;;;;;0.20;0.20;;;;;;;;;;1725113;28;20197;-74
2022/04/01 01:07:42;;;;;;;0.43;0.43;;;;;;;;;;1725428;28;20531;-74
2022/04/01 01:08:34;;;;;;;0.10;0.10;;;;;;;;;;1725562;28;20710;-74
2022/04/01 01:09:26;;;;;;;0.28;0.28;;;;;;;;;;1723520;28;20204;-74
2022/04/01 01:10:18;;;;;;;0.20;0.20;;;;;;;;;;1723491;28;20658;-73
2022/04/01 01:11:10;;;;;;;0.15;0.15;;;;;;;;;;1725624;28;20239;-74
2022/04/01 01:12:03;;;;;;;0.10;0.10;;;;;;;;;;1724852;28;20589;-74
2022/04/01 01:12:54;;;;;;;0.10;0.10;;;;;;;;;;1725882;28;20629;-74
2022/04/01 01:13:46;;;;;;;0.20;0.20;;;;;;;;;;1724718;28;20211;-74
2022/04/01 01:14:38;;;;;;;0.10;0.10;;;;;;;;;;1725639;28;20208;-75
2022/04/01 01:15:30;;;;;;;0.13;0.13;;;;;;;;;;1719981;28;20262;-75
2022/04/01 01:16:23;;;;;;;0.10;0.10;;;;;;;;;;1726204;28;20255;-74
2022/04/01 01:17:15;;;;;;;0.30;0.30;;;;;;;;;;1725250;28;20277;-74
2022/04/01 01:18:07;;;;;;;0.30;0.30;;;;;;;;;;1726271;28;20209;-74
2022/04/01 01:18:59;;;;;;;0.17;0.17;;;;;;;;;;1724317;28;20208;-74
2022/04/01 01:19:51;;;;;;;0.35;0.35;;;;;;;;;;1725356;28;20196;-74
2022/04/01 01:20:42;;;;;;;0.30;0.30;;;;;;;;;;1721833;28;20939;-74
2022/04/01 01:21:35;;;;;;;0.30;0.30;;;;;;;;;;1725979;28;20296;-74
2022/04/01 01:22:26;;;;;;;0.20;0.20;;;;;;;;;;1725087;28;20206;-74
2022/04/01 01:23:18;;;;;;;0.28;0.28;;;;;;;;;;1725928;28;20208;-74
2022/04/01 01:24:11;;;;;;;0.10;0.10;;;;;;;;;;1725487;28;20204;-74
2022/04/01 01:25:07;;;;;;;0.20;0.20;;;;;;;;;;1725862;28;20215;-74
2022/04/01 01:25:59;;;;;;;0.20;0.20;;;;;;;;;;1719605;28;20259;-74
2022/04/01 01:26:52;;;;;;;0.10;0.10;;;;;;;;;;1725278;28;20201;-74
2022/04/01 01:27:44;;;;;;;0.25;0.25;;;;;;;;;;1725680;28;20217;-75
2022/04/01 01:28:35;;;;;;;0.20;0.20;;;;;;;;;;1723707;28;20646;-74
2022/04/01 01:29:29;;;;;;;0.17;0.17;;;;;;;;;;1723944;28;20234;-74
2022/04/01 01:30:24;;;;;;;0.10;0.10;;;;;;;;;;1721634;28;20210;-75
2022/04/01 01:31:17;;;;;;;0.20;0.20;;;;;;;;;;1721881;28;20733;-74
2022/04/01 01:32:09;;;;;;;0.10;0.10;;;;;;;;;;1723143;28;20689;-74
2022/04/01 01:33:01;;;;;;;0.20;0.20;;;;;;;;;;1720703;28;20251;-74
2022/04/01 01:33:54;;;;;;;0.10;0.10;;;;;;;;;;1721878;28;20228;-74
2022/04/01 01:34:46;;;;;;;0.10;0.10;;;;;;;;;;1720668;28;20197;-74
2022/04/01 01:35:37;;;;;;;0.20;0.20;;;;;;;;;;1717425;28;20248;-74
2022/04/01 01:36:31;;;;;;;0.22;0.22;;;;;;;;;;1725988;28;20196;-75
2022/04/01 01:37:22;;;;;;;0.10;0.10;;;;;;;;;;1723707;28;20212;-74
2022/04/01 01:38:18;;;;;;;0.22;0.22;;;;;;;;;;1725441;28;20282;-74
2022/04/01 01:39:09;;;;;;;0.20;0.20;;;;;;;;;;1723585;28;20651;-74
2022/04/01 01:40:03;;;;;;;0.20;0.20;;;;;;;;;;1723757;28;20254;-74
2022/04/01 01:40:55;;;;;;;0.10;0.10;;;;;;;;;;1720785;28;20652;-75
2022/04/01 01:41:49;;;;;;;0.20;0.20;;;;;;;;;;1725281;28;20208;-75
2022/04/01 01:42:40;;;;;;;0.20;0.20;;;;;;;;;;1725858;28;20699;-75
2022/04/01 01:43:32;;;;;;;0.10;0.10;;;;;;;;;;1725737;28;20200;-74
2022/04/01 01:44:24;;;;;;;0.00;0.00;;;;;;;;;;1725255;28;20212;-75
2022/04/01 01:45:16;;;;;;;0.10;0.10;;;;;;;;;;1723012;28;20661;-75
2022/04/01 01:46:08;;;;;;;0.13;0.13;;;;;;;;;;1725217;28;20640;-74
2022/04/01 01:47:00;;;;;;;0.10;0.10;;;;;;;;;;1725073;28;20627;-74
2022/04/01 01:47:51;;;;;;;0.10;0.10;;;;;;;;;;1725127;28;20216;-74
2022/04/01 01:48:43;;;;;;;0.10;0.10;;;;;;;;;;1725291;28;20685;-74
2022/04/01 01:49:37;;;;;;;0.10;0.10;;;;;;;;;;1725696;28;20262;-74
2022/04/01 01:55:23;;;;;;;0.10;0.10;;;;;;;;;;1700850;28;20214;-75
2022/04/01 01:56:17;;;;;;;0.10;0.10;;;;;;;;;;1701483;29;20253;-75
2022/04/01 01:57:09;;;;;;;0.65;0.65;;;;;;;;;;1700630;29;20754;-74
2022/04/01 01:58:01;;;;;;;0.30;0.30;;;;;;;;;;1720826;28;20235;-74
2022/04/01 01:58:53;;;;;;;0.20;0.20;;;;;;;;;;1720955;28;20201;-74
2022/04/01 01:59:45;;;;;;;0.22;0.22;;;;;;;;;;1718975;28;20213;-75
2022/04/01 02:00:38;;;;;;;0.52;0.52;;;;;;;;;;1718479;28;20239;-75
2022/04/01 02:01:29;;;;;;;0.10;0.10;;;;;;;;;;1719941;28;20232;-74
2022/04/01 02:02:21;;;;;;;0.45;0.45;;;;;;;;;;1721277;28;20732;-74
2022/04/01 02:03:13;;;;;;;0.20;0.20;;;;;;;;;;1725518;28;20215;-74
2022/04/01 02:04:05;;;;;;;0.20;0.20;;;;;;;;;;1724610;28;20278;-74
2022/04/01 02:04:56;;;;;;;0.10;0.10;;;;;;;;;;1724638;28;20208;-74
2022/04/01 02:05:50;;;;;;;0.20;0.20;;;;;;;;;;1722344;28;20602;-74
2022/04/01 02:06:41;;;;;;;0.10;0.10;;;;;;;;;;1725342;28;20209;-74
2022/04/01 02:07:34;;;;;;;0.20;0.20;;;;;;;;;;1725286;28;20200;-75
2022/04/01 02:08:25;;;;;;;0.20;0.20;;;;;;;;;;1723915;28;20201;-74
2022/04/01 02:09:17;;;;;;;0.20;0.20;;;;;;;;;;1724146;28;20587;-74
2022/04/01 02:10:09;;;;;;;0.10;0.10;;;;;;;;;;1724613;28;20212;-74
2022/04/01 02:11:01;;;;;;;0.20;0.20;;;;;;;;;;1722337;28;20279;-74
2022/04/01 02:11:54;;;;;;;0.45;0.45;;;;;;;;;;1724899;28;20643;-74
2022/04/01 02:12:46;;;;;;;0.25;0.25;;;;;;;;;;1723132;28;20201;-74
2022/04/01 02:13:38;;;;;;;0.05;0.05;;;;;;;;;;1723131;28;20289;-74
2022/04/01 02:14:30;;;;;;;0.40;0.40;;;;;;;;;;1723774;28;20519;-74
2022/04/01 02:15:21;;;;;;;0.20;0.20;;;;;;;;;;1716634;28;20208;-75
2022/04/01 02:16:14;;;;;;;0.30;0.30;;;;;;;;;;1720937;28;20239;-74
2022/04/01 02:17:06;;;;;;;0.00;0.00;;;;;;;;;;1719720;28;20227;-74
2022/04/01 02:17:58;;;;;;;0.10;0.10;;;;;;;;;;1725730;28;20231;-74
2022/04/01 02:18:50;;;;;;;0.30;0.30;;;;;;;;;;1724933;28;20642;-74
2022/04/01 02:19:42;;;;;;;0.10;0.10;;;;;;;;;;1725533;28;20235;-74
2022/04/01 02:20:34;;;;;;;0.20;0.20;;;;;;;;;;1719768;28;20587;-73
2022/04/01 02:21:27;;;;;;;0.10;0.10;;;;;;;;;;1725581;28;20228;-74
2022/04/01 02:22:18;;;;;;;0.10;0.10;;;;;;;;;;1724408;28;20259;-74
2022/04/01 02:23:11;;;;;;;0.00;0.00;;;;;;;;;;1724730;28;20224;-74
2022/04/01 02:24:02;;;;;;;0.10;0.10;;;;;;;;;;1724299;28;20208;-74
2022/04/01 02:24:54;;;;;;;0.20;0.20;;;;;;;;;;1725791;28;20315;-74
2022/04/01 02:25:45;;;;;;;0.20;0.20;;;;;;;;;;1719834;28;20241;-74
2022/04/01 02:26:38;;;;;;;0.47;0.47;;;;;;;;;;1725574;28;20196;-74
2022/04/01 02:27:31;;;;;;;0.03;0.03;;;;;;;;;;1725026;28;20235;-74
2022/04/01 02:28:23;;;;;;;0.20;0.20;;;;;;;;;;1725181;28;20250;-74
2022/04/01 02:29:15;;;;;;;0.10;0.10;;;;;;;;;;1724677;28;20220;-74
2022/04/01 02:30:10;;;;;;;0.10;0.10;;;;;;;;;;1724280;28;20204;-74
2022/04/01 02:31:01;;;;;;;0.10;0.10;;;;;;;;;;1723292;28;20223;-74
2022/04/01 02:31:54;;;;;;;0.38;0.38;;;;;;;;;;1721328;28;20526;-74
2022/04/01 02:32:45;;;;;;;0.20;0.20;;;;;;;;;;1722212;28;20247;-74
2022/04/01 02:33:39;;;;;;;0.10;0.10;;;;;;;;;;1719434;28;20224;-74
2022/04/01 02:34:30;;;;;;;0.17;0.17;;;;;;;;;;1725386;28;20209;-74
2022/04/01 02:35:22;;;;;;;0.55;0.55;;;;;;;;;;1721689;28;20306;-74
2022/04/01 02:36:14;;;;;;;0.10;0.10;;;;;;;;;;1724323;28;20224;-74
2022/04/01 02:37:06;;;;;;;0.30;0.30;;;;;;;;;;1723734;28;20296;-74
2022/04/01 02:37:57;;;;;;;0.30;0.30;;;;;;;;;;1725447;28;20204;-75
2022/04/01 02:38:50;;;;;;;0.45;0.45;;;;;;;;;;1725027;28;20320;-75
2022/04/01 02:39:41;;;;;;;0.20;0.20;;;;;;;;;;1725119;28;20243;-74
2022/04/01 02:40:34;;;;;;;0.30;0.30;;;;;;;;;;1720037;28;20259;-75
2022/04/01 02:41:25;;;;;;;0.10;0.10;;;;;;;;;;1725627;28;20238;-75
2022/04/01 02:42:18;;;;;;;0.20;0.20;;;;;;;;;;1723693;28;20223;-75
2022/04/01 02:43:10;;;;;;;0.10;0.10;;;;;;;;;;1725231;28;20649;-75
2022/04/01 02:44:09;;;;;;;0.20;0.20;;;;;;;;;;1722663;28;20213;-75
2022/04/01 02:45:00;;;;;;;0.30;0.30;;;;;;;;;;1725087;28;20200;-76
2022/04/01 02:45:52;;;;;;;0.20;0.20;;;;;;;;;;1722866;28;20275;-76
2022/04/01 02:46:45;;;;;;;0.20;0.20;;;;;;;;;;1725143;28;20208;-76
2022/04/01 02:47:37;;;;;;;0.10;0.10;;;;;;;;;;1725019;28;20208;-75
2022/04/01 02:48:28;;;;;;;0.20;0.20;;;;;;;;;;1724138;28;20215;-75
2022/04/01 02:49:21;;;;;;;0.40;0.40;;;;;;;;;;1723755;28;20663;-75
2022/04/01 02:50:12;;;;;;;0.20;0.20;;;;;;;;;;1722916;28;20223;-76
2022/04/01 02:51:04;;;;;;;0.20;0.20;;;;;;;;;;1721163;28;20244;-75
2022/04/01 02:51:56;;;;;;;0.20;0.20;;;;;;;;;;1724621;28;20295;-75
2022/04/01 02:52:48;;;;;;;0.17;0.17;;;;;;;;;;1723327;28;20204;-75
2022/04/01 02:53:39;;;;;;;0.20;0.20;;;;;;;;;;1719898;28;20223;-75
2022/04/01 02:54:33;;;;;;;0.20;0.20;;;;;;;;;;1725104;28;20203;-75
2022/04/01 02:55:24;;;;;;;0.20;0.20;;;;;;;;;;1721113;28;20204;-74
2022/04/01 02:56:17;;;;;;;0.15;0.15;;;;;;;;;;1724293;28;20669;-75
2022/04/01 02:57:09;;;;;;;0.10;0.10;;;;;;;;;;1724675;28;20566;-75
2022/04/01 02:58:01;;;;;;;0.10;0.10;;;;;;;;;;1725562;28;20642;-75
2022/04/01 02:58:53;;;;;;;0.20;0.20;;;;;;;;;;1724250;28;20204;-75
2022/04/01 02:59:46;;;;;;;0.43;0.43;;;;;;;;;;1718455;28;20201;-74
2022/04/01 03:00:38;;;;;;;0.20;0.20;;;;;;;;;;1717487;28;20244;-76
2022/04/01 03:01:30;;;;;;;0.20;0.20;;;;;;;;;;1718766;28;20288;-75
2022/04/01 03:02:22;;;;;;;0.30;0.30;;;;;;;;;;1720615;28;20209;-75
2022/04/01 03:03:14;;;;;;;0.30;0.30;;;;;;;;;;1725452;28;20690;-76
2022/04/01 03:04:09;;;;;;;0.20;0.20;;;;;;;;;;1724911;28;20212;-75
2022/04/01 03:05:03;;;;;;;0.30;0.30;;;;;;;;;;1724900;28;20643;-75
2022/04/01 03:05:54;;;;;;;0.40;0.40;;;;;;;;;;1722555;28;20680;-76
2022/04/01 03:06:47;;;;;;;0.20;0.20;;;;;;;;;;1725206;28;20234;-76
2022/04/01 03:07:38;;;;;;;0.08;0.08;;;;;;;;;;1724338;28;20596;-76
2022/04/01 03:08:31;;;;;;;0.10;0.10;;;;;;;;;;1723368;28;20258;-76
2022/04/01 03:09:22;;;;;;;0.20;0.20;;;;;;;;;;1721299;28;20204;-75
2022/04/01 03:10:14;;;;;;;0.28;0.28;;;;;;;;;;1723869;28;20219;-76
2022/04/01 03:11:06;;;;;;;0.17;0.17;;;;;;;;;;1723077;28;20236;-75
2022/04/01 03:11:58;;;;;;;0.20;0.20;;;;;;;;;;1716511;28;20219;-75
2022/04/01 03:12:49;;;;;;;0.10;0.10;;;;;;;;;;1716639;28;20267;-75
2022/04/01 03:13:42;;;;;;;0.60;0.60;;;;;;;;;;1722189;28;20291;-75
2022/04/01 03:14:36;;;;;;;0.10;0.10;;;;;;;;;;1724838;28;20208;-75
2022/04/01 03:15:28;;;;;;;0.25;0.25;;;;;;;;;;1717032;28;20201;-75
2022/04/01 03:16:19;;;;;;;0.20;0.20;;;;;;;;;;1721582;28;20205;-75
2022/04/01 03:17:12;;;;;;;0.30;0.30;;;;;;;;;;1720031;28;20209;-75
2022/04/01 03:18:03;;;;;;;0.10;0.10;;;;;;;;;;1718719;28;20205;-75
2022/04/01 03:18:59;;;;;;;0.20;0.20;;;;;;;;;;1721312;28;20614;-75
2022/04/01 03:19:50;;;;;;;0.10;0.10;;;;;;;;;;1724895;28;20290;-75
2022/04/01 03:20:45;;;;;;;0.10;0.10;;;;;;;;;;1721968;28;20641;-75
2022/04/01 03:21:36;;;;;;;0.13;0.13;;;;;;;;;;1725284;28;20262;-75
2022/04/01 03:22:28;;;;;;;0.22;0.22;;;;;;;;;;1723581;28;20208;-75
2022/04/01 03:23:20;;;;;;;0.20;0.20;;;;;;;;;;1719122;28;20546;-75
2022/04/01 03:24:12;;;;;;;0.20;0.20;;;;;;;;;;1721689;28;20205;-74
2022/04/01 03:25:05;;;;;;;0.30;0.30;;;;;;;;;;1725271;28;20208;-74
2022/04/01 03:25:58;;;;;;;0.20;0.20;;;;;;;;;;1719490;28;20716;-75
2022/04/01 03:26:49;;;;;;;0.03;0.03;;;;;;;;;;1724605;28;20201;-75
2022/04/01 03:27:41;;;;;;;0.20;0.20;;;;;;;;;;1725417;28;20207;-75
2022/04/01 03:28:33;;;;;;;0.40;0.40;;;;;;;;;;1723291;28;20542;-76
2022/04/01 03:29:25;;;;;;;0.20;0.20;;;;;;;;;;1725496;28;20196;-75
2022/04/01 03:30:19;;;;;;;0.17;0.17;;;;;;;;;;1721399;28;20208;-76
2022/04/01 03:31:12;;;;;;;0.20;0.20;;;;;;;;;;1722004;28;20255;-76
2022/04/01 03:32:04;;;;;;;0.30;0.30;;;;;;;;;;1722472;28;20208;-75
2022/04/01 03:32:56;;;;;;;0.30;0.30;;;;;;;;;;1720428;28;20204;-75
2022/04/01 03:33:47;;;;;;;0.20;0.20;;;;;;;;;;1719501;28;20426;-75
2022/04/01 03:34:41;;;;;;;0.47;0.47;;;;;;;;;;1725512;28;20224;-76
2022/04/01 03:35:32;;;;;;;0.30;0.30;;;;;;;;;;1721096;28;20235;-75
2022/04/01 03:36:24;;;;;;;0.17;0.17;;;;;;;;;;1725447;28;20220;-75
2022/04/01 03:37:16;;;;;;;0.30;0.30;;;;;;;;;;1724895;28;20231;-75
2022/04/01 03:38:10;;;;;;;0.10;0.10;;;;;;;;;;1725655;28;20873;-75
2022/04/01 03:39:01;;;;;;;0.40;0.40;;;;;;;;;;1723822;28;20213;-74
2022/04/01 03:39:54;;;;;;;0.45;0.45;;;;;;;;;;1724693;28;20424;-74
2022/04/01 03:40:48;;;;;;;0.30;0.30;;;;;;;;;;1722276;28;20251;-75
2022/04/01 03:41:40;;;;;;;0.10;0.10;;;;;;;;;;1725345;28;20519;-74
2022/04/01 03:42:32;;;;;;;0.52;0.52;;;;;;;;;;1721784;28;20205;-75
2022/04/01 03:43:24;;;;;;;0.10;0.10;;;;;;;;;;1725551;28;20207;-74
2022/04/01 03:44:16;;;;;;;0.20;0.20;;;;;;;;;;1722646;28;20212;-74
2022/04/01 03:45:08;;;;;;;0.10;0.10;;;;;;;;;;1724868;28;20580;-74
2022/04/01 03:46:05;;;;;;;0.17;0.17;;;;;;;;;;1721419;28;20301;-75
2022/04/01 03:47:01;;;;;;;0.10;0.10;;;;;;;;;;1721788;28;20205;-75
2022/04/01 03:47:54;;;;;;;0.25;0.25;;;;;;;;;;1724291;28;20211;-75
2022/04/01 03:48:49;;;;;;;0.08;0.08;;;;;;;;;;1725058;28;20204;-75
2022/04/01 03:49:46;;;;;;;0.20;0.20;;;;;;;;;;1725653;28;20197;-76
2022/04/01 03:50:40;;;;;;;0.10;0.10;;;;;;;;;;1721112;28;20236;-76
2022/04/01 03:51:33;;;;;;;0.17;0.17;;;;;;;;;;1725363;28;20256;-76
2022/04/01 03:52:26;;;;;;;0.20;0.20;;;;;;;;;;1723730;28;20238;-76
2022/04/01 03:53:22;;;;;;;0.20;0.20;;;;;;;;;;1725443;28;20209;-76
2022/04/01 03:54:16;;;;;;;0.20;0.20;;;;;;;;;;1723783;28;20236;-75
2022/04/01 03:55:09;;;;;;;0.20;0.20;;;;;;;;;;1724733;28;20219;-75
2022/04/01 03:56:02;;;;;;;0.20;0.20;;;;;;;;;;1720327;28;20758;-75
2022/04/01 03:56:57;;;;;;;0.10;0.10;;;;;;;;;;1725508;28;20586;-75
2022/04/01 03:57:50;;;;;;;0.20;0.20;;;;;;;;;;1725410;28;20205;-76
2022/04/01 03:58:44;;;;;;;0.20;0.20;;;;;;;;;;1724259;28;20204;-76
2022/04/01 03:59:41;;;;;;;0.10;0.10;;;;;;;;;;1725611;28;20216;-76
2022/04/01 04:00:33;;;;;;;0.00;0.00;;;;;;;;;;1722173;28;20240;-76
2022/04/01 04:01:28;;;;;;;0.20;0.20;;;;;;;;;;1718550;28;20543;-75
2022/04/01 04:02:19;;;;;;;0.30;0.30;;;;;;;;;;1722466;28;20579;-75
2022/04/01 04:03:12;;;;;;;0.20;0.20;;;;;;;;;;1725748;28;20206;-76
2022/04/01 04:04:04;;;;;;;0.20;0.20;;;;;;;;;;1720810;28;20274;-75
2022/04/01 04:04:56;;;;;;;0.43;0.43;;;;;;;;;;1724862;28;20207;-75
2022/04/01 04:05:48;;;;;;;0.20;0.20;;;;;;;;;;1725501;28;20565;-75
2022/04/01 04:06:41;;;;;;;0.10;0.10;;;;;;;;;;1731580;28;20196;-75
2022/04/01 04:07:32;;;;;;;0.28;0.28;;;;;;;;;;1731456;28;20199;-75
2022/04/01 04:08:24;;;;;;;0.25;0.25;;;;;;;;;;1732429;28;20210;-75
2022/04/01 04:09:16;;;;;;;0.10;0.10;;;;;;;;;;1728950;28;20289;-75
2022/04/01 04:10:09;;;;;;;0.30;0.30;;;;;;;;;;1731513;28;20631;-75
2022/04/01 04:11:00;;;;;;;0.10;0.10;;;;;;;;;;1727700;28;20565;-76
2022/04/01 04:11:54;;;;;;;0.20;0.20;;;;;;;;;;1725971;28;20212;-75
2022/04/01 04:12:46;;;;;;;0.20;0.20;;;;;;;;;;1731267;28;20218;-76
2022/04/01 04:13:38;;;;;;;0.20;0.20;;;;;;;;;;1732436;28;20204;-76
2022/04/01 04:14:30;;;;;;;0.20;0.20;;;;;;;;;;1731345;28;20214;-76
2022/04/01 04:15:21;;;;;;;0.13;0.13;;;;;;;;;;1726661;28;20619;-74
2022/04/01 04:16:18;;;;;;;0.30;0.30;;;;;;;;;;1730180;28;20716;-75
2022/04/01 04:17:14;;;;;;;0.10;0.10;;;;;;;;;;1728598;28;20567;-75
2022/04/01 04:18:08;;;;;;;0.25;0.25;;;;;;;;;;1725904;28;20534;-75
2022/04/01 04:19:01;;;;;;;0.10;0.10;;;;;;;;;;1730184;28;20208;-75
2022/04/01 04:19:57;;;;;;;0.35;0.35;;;;;;;;;;1733224;28;20207;-75
2022/04/01 04:20:54;;;;;;;0.22;0.22;;;;;;;;;;1728278;28;20246;-75
2022/04/01 04:21:50;;;;;;;0.20;0.20;;;;;;;;;;1733395;28;20303;-75
2022/04/01 04:22:48;;;;;;;0.32;0.32;;;;;;;;;;1732134;28;20203;-75
2022/04/01 04:23:44;;;;;;;0.17;0.17;;;;;;;;;;1731204;28;20633;-75
2022/04/01 04:24:41;;;;;;;0.17;0.17;;;;;;;;;;1732743;28;20665;-75
2022/04/01 04:25:35;;;;;;;0.20;0.20;;;;;;;;;;1727068;28;20245;-74
2022/04/01 04:26:31;;;;;;;0.20;0.20;;;;;;;;;;1726448;28;20535;-74
2022/04/01 04:27:26;;;;;;;0.20;0.20;;;;;;;;;;1732773;28;20204;-75
2022/04/01 04:28:22;;;;;;;0.15;0.15;;;;;;;;;;1732802;28;20614;-74
2022/04/01 04:29:14;;;;;;;0.20;0.20;;;;;;;;;;1731058;28;20204;-74
2022/04/01 04:30:08;;;;;;;0.30;0.30;;;;;;;;;;1732187;28;20239;-74
2022/04/01 04:31:03;;;;;;;0.30;0.30;;;;;;;;;;1728083;28;20525;-75
2022/04/01 04:32:02;;;;;;;0.20;0.20;;;;;;;;;;1729648;28;20203;-75
2022/04/01 04:32:56;;;;;;;0.30;0.30;;;;;;;;;;1727955;28;20620;-75
2022/04/01 04:33:48;;;;;;;0.10;0.10;;;;;;;;;;1728473;28;20223;-75
2022/04/01 04:34:43;;;;;;;0.10;0.10;;;;;;;;;;1733014;28;20257;-75
2022/04/01 04:35:37;;;;;;;0.20;0.20;;;;;;;;;;1730331;28;20673;-76
2022/04/01 04:36:34;;;;;;;0.10;0.10;;;;;;;;;;1732464;28;20218;-75
2022/04/01 04:37:29;;;;;;;0.20;0.20;;;;;;;;;;1729313;28;20681;-75
2022/04/01 04:38:20;;;;;;;0.10;0.10;;;;;;;;;;1733094;28;20208;-75
2022/04/01 04:39:17;;;;;;;0.43;0.43;;;;;;;;;;1732206;28;20273;-75
2022/04/01 04:40:10;;;;;;;0.30;0.30;;;;;;;;;;1730086;28;20188;-75
2022/04/01 04:41:08;;;;;;;0.40;0.40;;;;;;;;;;1728038;28;20262;-75
2022/04/01 04:42:01;;;;;;;0.20;0.20;;;;;;;;;;1729044;28;20299;-75
2022/04/01 04:42:54;;;;;;;0.20;0.20;;;;;;;;;;1732256;28;20643;-75
2022/04/01 04:43:45;;;;;;;0.32;0.32;;;;;;;;;;1731158;28;20208;-75
2022/04/01 04:44:38;;;;;;;0.20;0.20;;;;;;;;;;1732889;28;20211;-75
2022/04/01 04:45:29;;;;;;;0.17;0.17;;;;;;;;;;1729733;28;20208;-76
2022/04/01 04:46:22;;;;;;;0.13;0.13;;;;;;;;;;1733299;28;20207;-76
2022/04/01 04:47:15;;;;;;;0.28;0.28;;;;;;;;;;1727108;28;20216;-76
2022/04/01 04:48:10;;;;;;;0.20;0.20;;;;;;;;;;1733268;28;20211;-75
2022/04/01 04:49:02;;;;;;;0.10;0.10;;;;;;;;;;1728162;28;20540;-76
2022/04/01 04:49:56;;;;;;;0.30;0.30;;;;;;;;;;1732056;28;20195;-75
2022/04/01 04:50:47;;;;;;;0.20;0.20;;;;;;;;;;1726562;28;20247;-75
2022/04/01 04:51:40;;;;;;;0.25;0.25;;;;;;;;;;1732603;28;20929;-75
2022/04/01 04:52:32;;;;;;;0.20;0.20;;;;;;;;;;1731675;28;20199;-75
2022/04/01 04:53:25;;;;;;;0.10;0.10;;;;;;;;;;1732836;28;20203;-74
2022/04/01 04:54:18;;;;;;;0.10;0.10;;;;;;;;;;1732427;28;20272;-74
2022/04/01 04:55:12;;;;;;;0.10;0.10;;;;;;;;;;1732512;28;20214;-75
2022/04/01 04:56:03;;;;;;;0.15;0.15;;;;;;;;;;1729832;28;20677;-75
2022/04/01 04:56:56;;;;;;;0.20;0.20;;;;;;;;;;1732829;28;20772;-74
2022/04/01 04:57:47;;;;;;;0.20;0.20;;;;;;;;;;1732778;28;20475;-75
2022/04/01 04:58:43;;;;;;;0.10;0.10;;;;;;;;;;1731007;28;20295;-75
2022/04/01 04:59:35;;;;;;;0.15;0.15;;;;;;;;;;1733209;28;20514;-75
2022/04/01 05:00:27;;;;;;;0.10;0.10;;;;;;;;;;1728036;28;20223;-75
2022/04/01 05:01:24;;;;;;;0.20;0.20;;;;;;;;;;1731391;28;20543;-74
2022/04/01 05:02:18;;;;;;;0.28;0.28;;;;;;;;;;1728558;28;20515;-74
2022/04/01 05:03:19;;;;;;;0.10;0.10;;;;;;;;;;1732957;28;20660;-75
2022/04/01 05:04:22;;;;;;;0.25;0.25;;;;;;;;;;1727927;28;20209;-75
2022/04/01 05:05:19;;;;;;;0.20;0.20;;;;;;;;;;1726899;28;20252;-75
2022/04/01 05:06:13;;;;;;;0.25;0.25;;;;;;;;;;1722562;28;20302;-74
2022/04/01 05:07:09;;;;;;;0.25;0.25;;;;;;;;;;1725574;28;20235;-74
2022/04/01 05:08:15;;;;;;;0.20;0.20;;;;;;;;;;1722177;28;20201;-74
2022/04/01 05:09:10;;;;;;;0.20;0.20;;;;;;;;;;1719446;28;20205;-74
2022/04/01 05:10:06;;;;;;;0.20;0.20;;;;;;;;;;1719402;28;20235;-74
2022/04/01 05:11:02;;;;;;;0.10;0.10;;;;;;;;;;1721611;28;20268;-74
2022/04/01 05:11:59;;;;;;;0.20;0.20;;;;;;;;;;1718421;28;20201;-74
2022/04/01 05:12:54;;;;;;;0.30;0.30;;;;;;;;;;1721891;28;20205;-74
2022/04/01 05:13:52;;;;;;;0.10;0.10;;;;;;;;;;1719922;28;20244;-74
2022/04/01 05:14:48;;;;;;;0.30;0.30;;;;;;;;;;1719643;28;20528;-74
2022/04/01 05:15:40;;;;;;;0.20;0.20;;;;;;;;;;1722972;28;20236;-74
2022/04/01 05:16:32;;;;;;;0.30;0.30;;;;;;;;;;1720886;28;20255;-74
2022/04/01 05:17:28;;;;;;;0.20;0.20;;;;;;;;;;1725141;28;20201;-74
2022/04/01 05:18:25;;;;;;;0.10;0.10;;;;;;;;;;1719718;28;20236;-74
2022/04/01 05:19:23;;;;;;;0.30;0.30;;;;;;;;;;1721962;28;20201;-74
2022/04/01 05:20:20;;;;;;;0.17;0.17;;;;;;;;;;1716934;28;20208;-73
2022/04/01 05:21:16;;;;;;;0.10;0.10;;;;;;;;;;1722873;28;20228;-74
2022/04/01 05:22:09;;;;;;;0.20;0.20;;;;;;;;;;1723322;28;20235;-73